Time;durP1;ratioP1;P1;durP2;ratioP2;P2;SDS_P1;SDS_P2;PMS_P1;PMS_P2;Temp;Humidity;BMP_temperature;BMP_pressure;BME280_temperature;BME280_humidity;BME280_pressure;Samples;Min_cycle;Max_cycle;Signal;HPM_P1;HPM_P2
2023/08/07 00:00:23;;;;;;;9.10;6.15;;;15.60;99.90;;;;;;5026219;28;20045;-64
2023/08/07 00:02:49;;;;;;;8.20;6.00;;;15.60;99.90;;;;;;5028345;28;20041;-64
2023/08/07 00:05:16;;;;;;;11.40;6.30;;;15.60;99.90;;;;;;5032021;28;20045;-63
2023/08/07 00:07:42;;;;;;;10.32;6.70;;;15.60;99.90;;;;;;5023234;28;20066;-63
2023/08/07 00:10:08;;;;;;;12.50;5.95;;;15.60;99.90;;;;;;5029741;28;20128;-64
2023/08/07 00:15:07;;;;;;;10.13;5.75;;;15.60;99.90;;;;;;5048807;28;20380;-67
2023/08/07 00:17:33;;;;;;;9.20;5.47;;;15.60;99.90;;;;;;5049797;28;20475;-67
2023/08/07 00:19:58;;;;;;;9.73;4.97;;;15.60;99.90;;;;;;5050146;28;20039;-67
2023/08/07 00:22:25;;;;;;;9.95;4.93;;;15.60;99.90;;;;;;5040701;28;20037;-68
2023/08/07 00:24:50;;;;;;;7.00;5.25;;;15.60;99.90;;;;;;5044436;28;20120;-67
2023/08/07 00:27:16;;;;;;;10.27;5.10;;;15.50;99.90;;;;;;5049702;28;20100;-67
2023/08/07 00:29:42;;;;;;;7.38;4.95;;;15.60;99.90;;;;;;5050701;28;20078;-67
2023/08/07 00:32:08;;;;;;;8.23;5.30;;;15.60;99.90;;;;;;5051616;28;20090;-67
2023/08/07 00:34:34;;;;;;;9.55;5.10;;;15.60;99.90;;;;;;5043110;28;20072;-67
2023/08/07 00:37:00;;;;;;;7.05;5.43;;;15.60;99.90;;;;;;5046997;28;20084;-67
2023/08/07 00:39:25;;;;;;;9.13;4.80;;;15.60;99.90;;;;;;5040893;28;20041;-67
2023/08/07 00:41:51;;;;;;;9.05;4.90;;;15.60;99.90;;;;;;5040831;28;20044;-67
2023/08/07 00:44:17;;;;;;;6.95;5.07;;;15.60;99.90;;;;;;5051085;28;20037;-67
2023/08/07 00:46:43;;;;;;;6.60;4.40;;;15.60;99.90;;;;;;5051487;28;20086;-67
2023/08/07 00:49:11;;;;;;;6.82;3.95;;;15.60;99.90;;;;;;5046935;28;20191;-67
2023/08/07 00:51:37;;;;;;;5.93;4.80;;;15.50;99.90;;;;;;5049786;28;20048;-67
2023/08/07 00:54:04;;;;;;;6.40;4.30;;;15.60;99.90;;;;;;5041554;28;20032;-67
2023/08/07 00:56:31;;;;;;;6.63;3.83;;;15.60;99.90;;;;;;5046516;28;20123;-67
2023/08/07 00:59:01;;;;;;;7.35;4.30;;;15.60;99.90;;;;;;5049570;28;20041;-67
2023/08/07 01:01:27;;;;;;;7.40;4.25;;;15.60;99.90;;;;;;5050621;28;20414;-67
2023/08/07 01:03:52;;;;;;;5.95;3.78;;;15.60;99.90;;;;;;5049095;28;20056;-67
2023/08/07 01:06:18;;;;;;;6.22;4.13;;;15.60;99.90;;;;;;5054516;28;20032;-68
2023/08/07 01:08:45;;;;;;;6.38;3.78;;;15.60;99.90;;;;;;5045407;28;20431;-68
2023/08/07 01:11:29;;;;;;;6.95;4.13;;;15.60;99.90;;;;;;5054397;28;20045;-68
2023/08/07 01:14:00;;;;;;;7.55;4.38;;;15.60;99.90;;;;;;5031779;28;20050;-68
2023/08/07 01:16:37;;;;;;;8.80;5.18;;;15.60;99.90;;;;;;5052576;28;20033;-67
2023/08/07 01:19:04;;;;;;;5.30;3.55;;;15.50;99.90;;;;;;5053017;28;20049;-67
2023/08/07 01:21:31;;;;;;;6.55;3.67;;;15.50;99.90;;;;;;5053625;28;20123;-67
2023/08/07 01:23:57;;;;;;;5.97;3.72;;;15.50;99.90;;;;;;5046300;28;20161;-67
2023/08/07 01:26:23;;;;;;;8.55;3.92;;;15.50;99.90;;;;;;5049267;28;20061;-67
2023/08/07 01:29:22;;;;;;;7.43;3.60;;;15.40;99.90;;;;;;5044111;28;20108;-67
2023/08/07 01:31:49;;;;;;;6.93;3.38;;;15.40;99.90;;;;;;5052940;28;20487;-67
2023/08/07 01:34:19;;;;;;;6.95;3.70;;;15.40;99.90;;;;;;5049950;28;20045;-67
2023/08/07 01:36:47;;;;;;;6.30;3.33;;;15.40;99.90;;;;;;5054652;28;20044;-67
2023/08/07 01:39:13;;;;;;;7.55;3.95;;;15.40;99.90;;;;;;5054327;28;20094;-67
2023/08/07 01:41:40;;;;;;;6.00;3.50;;;15.40;99.90;;;;;;5047506;28;20041;-67
2023/08/07 01:44:06;;;;;;;5.47;3.92;;;15.30;99.90;;;;;;5046150;28;20510;-67
2023/08/07 01:46:32;;;;;;;5.88;3.53;;;15.30;99.90;;;;;;5042839;28;20033;-68
2023/08/07 01:48:57;;;;;;;6.30;3.72;;;15.30;99.90;;;;;;5051921;28;20044;-68
2023/08/07 01:51:23;;;;;;;7.78;3.72;;;15.30;99.90;;;;;;5053216;28;20122;-67
2023/08/07 01:53:48;;;;;;;5.78;3.08;;;15.30;99.90;;;;;;5052503;28;20494;-67
2023/08/07 01:56:14;;;;;;;7.45;3.50;;;15.30;99.90;;;;;;5045036;28;20079;-67
2023/08/07 01:58:40;;;;;;;5.40;3.13;;;15.30;99.90;;;;;;5051682;28;20037;-67
2023/08/07 02:01:05;;;;;;;6.43;3.35;;;15.30;99.90;;;;;;5048888;28;20099;-67
2023/08/07 02:03:31;;;;;;;6.03;3.50;;;15.30;99.90;;;;;;5050587;28;20124;-67
2023/08/07 02:05:56;;;;;;;8.48;3.20;;;15.20;99.90;;;;;;5047465;28;20029;-67
2023/08/07 02:08:22;;;;;;;10.00;3.35;;;15.10;99.90;;;;;;5052344;28;20115;-67
2023/08/07 02:10:48;;;;;;;8.07;2.95;;;15.20;99.90;;;;;;5052875;28;20045;-67
2023/08/07 02:13:13;;;;;;;8.38;3.28;;;15.20;99.90;;;;;;5044962;28;20106;-67
2023/08/07 02:15:39;;;;;;;5.28;3.10;;;15.20;99.90;;;;;;5050342;28;20043;-67
2023/08/07 02:18:04;;;;;;;7.72;3.00;;;15.20;99.90;;;;;;5052482;28;20048;-67
2023/08/07 02:20:30;;;;;;;6.60;2.60;;;15.20;99.90;;;;;;5048774;28;20475;-67
2023/08/07 02:22:56;;;;;;;8.02;2.70;;;15.10;99.90;;;;;;5050766;28;20120;-67
2023/08/07 02:25:21;;;;;;;7.28;2.47;;;15.10;99.90;;;;;;5051314;28;20068;-67
2023/08/07 02:27:47;;;;;;;11.00;2.72;;;15.20;99.90;;;;;;5053550;28;20402;-67
2023/08/07 02:30:12;;;;;;;10.45;2.53;;;15.00;99.90;;;;;;5052347;28;20090;-67
2023/08/07 02:32:41;;;;;;;5.70;2.40;;;15.10;99.90;;;;;;5051639;28;20102;-67
2023/08/07 02:35:07;;;;;;;8.50;2.28;;;15.10;99.90;;;;;;5048857;28;20037;-68
2023/08/07 02:37:32;;;;;;;9.02;2.80;;;15.00;99.90;;;;;;5052589;28;20087;-67
2023/08/07 02:39:58;;;;;;;10.98;2.38;;;15.00;99.90;;;;;;5052424;28;20037;-67
2023/08/07 02:42:23;;;;;;;7.07;2.67;;;15.00;99.90;;;;;;5050670;28;20033;-67
2023/08/07 02:44:49;;;;;;;5.32;2.28;;;15.00;99.90;;;;;;5050955;28;20132;-67
2023/08/07 02:47:15;;;;;;;7.65;2.58;;;14.90;99.90;;;;;;5050623;28;20044;-67
2023/08/07 02:49:40;;;;;;;6.47;2.13;;;14.90;99.90;;;;;;5052276;28;20045;-67
2023/08/07 02:52:06;;;;;;;10.15;2.78;;;14.90;99.90;;;;;;5050126;28;20037;-68
2023/08/07 02:54:32;;;;;;;14.48;3.15;;;14.80;99.90;;;;;;5049208;28;20048;-67
2023/08/07 02:56:57;;;;;;;7.65;2.33;;;14.80;99.90;;;;;;5050723;28;20041;-67
2023/08/07 02:59:23;;;;;;;7.85;2.50;;;14.80;99.90;;;;;;5050558;28;20434;-67
2023/08/07 03:01:50;;;;;;;6.05;2.25;;;14.80;99.90;;;;;;5051769;28;20029;-67
2023/08/07 03:04:16;;;;;;;13.45;3.15;;;14.80;99.90;;;;;;5051072;28;20395;-67
2023/08/07 03:06:41;;;;;;;7.40;2.25;;;14.80;99.90;;;;;;5051442;28;20043;-68
2023/08/07 03:09:07;;;;;;;4.10;2.17;;;14.90;99.90;;;;;;5051769;28;20040;-68
2023/08/07 03:11:32;;;;;;;7.88;2.10;;;14.80;99.90;;;;;;5052547;28;20047;-67
2023/08/07 03:13:58;;;;;;;8.50;2.20;;;14.80;99.90;;;;;;5050192;28;20059;-67
2023/08/07 03:16:24;;;;;;;8.35;2.60;;;14.80;99.90;;;;;;5050857;28;20071;-67
2023/08/07 03:18:49;;;;;;;12.50;2.63;;;14.70;99.90;;;;;;5045150;28;20509;-67
2023/08/07 03:21:15;;;;;;;8.75;2.58;;;14.70;99.90;;;;;;5049320;28;20043;-68
2023/08/07 03:23:40;;;;;;;8.40;2.38;;;14.70;99.90;;;;;;5051377;28;20407;-67
2023/08/07 03:26:11;;;;;;;13.35;3.05;;;14.70;99.90;;;;;;5046047;28;20029;-67
2023/08/07 03:28:37;;;;;;;10.32;2.55;;;14.70;99.90;;;;;;5048674;28;20139;-68
2023/08/07 03:31:03;;;;;;;16.80;2.67;;;14.70;99.90;;;;;;5048794;28;20048;-67
2023/08/07 03:33:29;;;;;;;12.73;2.55;;;14.70;99.90;;;;;;5048804;28;20070;-67
2023/08/07 03:35:54;;;;;;;7.72;2.17;;;14.70;99.90;;;;;;5042368;28;20041;-67
2023/08/07 03:38:20;;;;;;;8.60;2.20;;;14.70;99.90;;;;;;5050983;28;20178;-68
2023/08/07 03:40:46;;;;;;;9.57;2.58;;;14.70;99.90;;;;;;5051024;28;20525;-67
2023/08/07 03:43:12;;;;;;;10.13;2.35;;;14.70;99.90;;;;;;5049139;28;20082;-68
2023/08/07 03:45:39;;;;;;;12.60;2.35;;;14.70;99.90;;;;;;5044309;28;20090;-67
2023/08/07 03:48:04;;;;;;;8.68;2.03;;;14.60;99.90;;;;;;5049120;28;20043;-67
2023/08/07 03:50:30;;;;;;;12.02;2.30;;;14.70;99.90;;;;;;5047291;28;20041;-67
2023/08/07 03:52:56;;;;;;;14.93;2.40;;;14.60;99.90;;;;;;5048180;28;20041;-68
2023/08/07 03:55:22;;;;;;;7.85;2.05;;;14.60;99.90;;;;;;5049363;28;20029;-68
2023/08/07 03:57:47;;;;;;;10.02;2.28;;;14.70;99.90;;;;;;5047758;28;20043;-67
2023/08/07 04:00:13;;;;;;;9.65;2.20;;;14.60;99.90;;;;;;5046505;28;20467;-67
2023/08/07 04:02:39;;;;;;;6.80;1.95;;;14.60;99.90;;;;;;5046536;28;20033;-67
2023/08/07 04:05:05;;;;;;;9.75;2.47;;;14.60;99.90;;;;;;5039972;28;20119;-67
2023/08/07 04:07:31;;;;;;;13.15;2.58;;;14.60;99.90;;;;;;5051194;28;20132;-67
2023/08/07 04:09:56;;;;;;;9.77;2.40;;;14.60;99.90;;;;;;5044289;28;20045;-67
2023/08/07 04:12:22;;;;;;;8.57;2.42;;;14.60;99.90;;;;;;5037120;28;20395;-67
2023/08/07 04:14:48;;;;;;;10.45;2.50;;;14.70;99.90;;;;;;5013680;28;1076481;-67
2023/08/07 04:17:13;;;;;;;9.07;2.25;;;14.70;99.90;;;;;;5031818;28;20103;-67
2023/08/07 04:19:39;;;;;;;9.38;2.20;;;14.70;99.90;;;;;;5041943;28;20564;-67
2023/08/07 04:22:05;;;;;;;7.13;2.15;;;14.70;99.90;;;;;;5047941;28;20045;-67
2023/08/07 04:24:30;;;;;;;8.40;2.42;;;14.70;99.90;;;;;;5045268;28;20040;-68
2023/08/07 04:26:56;;;;;;;5.97;2.03;;;14.70;99.90;;;;;;5040217;28;20079;-67
2023/08/07 04:29:22;;;;;;;6.15;2.17;;;14.80;99.90;;;;;;5049969;28;20521;-67
2023/08/07 04:31:47;;;;;;;6.68;2.00;;;14.80;99.90;;;;;;5049480;28;20094;-67
2023/08/07 04:34:13;;;;;;;10.15;2.30;;;14.80;99.90;;;;;;5047656;28;20025;-70
2023/08/07 04:36:39;;;;;;;6.97;2.10;;;14.80;99.90;;;;;;5035612;28;20045;-69
2023/08/07 04:39:05;;;;;;;7.15;2.05;;;14.80;99.90;;;;;;5050622;28;20039;-69
2023/08/07 04:41:30;;;;;;;8.75;3.20;;;14.80;99.90;;;;;;5050814;28;20033;-69
2023/08/07 04:43:56;;;;;;;7.82;2.30;;;14.80;99.90;;;;;;5038248;28;20033;-69
2023/08/07 04:46:21;;;;;;;10.93;3.28;;;14.80;99.90;;;;;;5047094;28;20043;-69
2023/08/07 04:48:48;;;;;;;8.88;2.47;;;14.80;99.90;;;;;;5039204;28;20067;-69
2023/08/07 04:51:14;;;;;;;9.98;2.40;;;14.80;99.90;;;;;;5034650;28;20040;-69
2023/08/07 04:53:39;;;;;;;10.07;2.85;;;14.90;99.90;;;;;;5039807;28;20040;-67
2023/08/07 04:56:05;;;;;;;9.68;2.40;;;14.80;99.90;;;;;;5056238;28;20037;-68
2023/08/07 04:58:31;;;;;;;10.07;2.30;;;14.90;99.90;;;;;;5051320;28;20041;-69
2023/08/07 05:00:57;;;;;;;9.63;2.30;;;14.90;99.90;;;;;;5034381;28;20110;-69
2023/08/07 05:03:23;;;;;;;9.27;2.80;;;14.90;99.90;;;;;;5031098;28;20045;-69
2023/08/07 05:05:48;;;;;;;5.90;2.08;;;14.90;99.90;;;;;;5045669;28;20179;-69
2023/08/07 05:08:14;;;;;;;6.82;2.42;;;14.90;99.90;;;;;;5051662;28;20072;-68
2023/08/07 05:10:40;;;;;;;8.40;2.75;;;14.90;99.90;;;;;;5050209;28;20422;-68
2023/08/07 05:13:05;;;;;;;9.75;2.50;;;15.00;99.90;;;;;;5042653;28;20033;-68
2023/08/07 05:15:31;;;;;;;9.07;3.25;;;14.90;99.90;;;;;;5051045;28;20252;-68
2023/08/07 05:17:57;;;;;;;9.48;2.95;;;14.90;99.90;;;;;;5050809;28;20033;-68
2023/08/07 05:20:22;;;;;;;9.55;2.65;;;14.90;99.90;;;;;;5043745;28;20032;-68
2023/08/07 05:22:48;;;;;;;8.05;2.45;;;15.00;99.90;;;;;;5045224;28;20034;-68
2023/08/07 05:25:15;;;;;;;8.63;2.90;;;15.00;99.90;;;;;;5029734;28;20030;-68
2023/08/07 05:27:45;;;;;;;7.60;2.60;;;15.00;99.90;;;;;;5029675;28;20494;-68
2023/08/07 05:30:12;;;;;;;10.40;3.00;;;15.00;99.90;;;;;;5038241;28;20442;-68
2023/08/07 05:32:37;;;;;;;13.20;3.03;;;14.90;99.90;;;;;;5049587;28;20065;-68
2023/08/07 05:35:07;;;;;;;9.82;2.72;;;15.00;99.90;;;;;;5047725;28;20391;-68
2023/08/07 05:37:33;;;;;;;7.20;2.90;;;14.90;99.90;;;;;;5050434;28;20069;-68
2023/08/07 05:39:59;;;;;;;7.15;2.97;;;15.00;99.90;;;;;;5043240;28;20042;-69
2023/08/07 05:42:25;;;;;;;8.57;2.95;;;15.00;99.90;;;;;;5034210;28;20041;-69
2023/08/07 05:44:50;;;;;;;7.75;3.03;;;15.00;99.90;;;;;;5034576;28;20041;-69
2023/08/07 05:47:16;;;;;;;8.27;2.80;;;15.00;99.90;;;;;;5043310;28;20032;-70
2023/08/07 05:49:42;;;;;;;6.75;2.63;;;15.00;99.90;;;;;;5037453;28;20499;-69
2023/08/07 05:52:08;;;;;;;9.13;3.00;;;15.00;99.90;;;;;;5044519;28;20041;-69
2023/08/07 05:54:34;;;;;;;11.70;3.13;;;15.00;99.90;;;;;;5052487;28;20103;-69
2023/08/07 05:56:59;;;;;;;7.05;2.58;;;15.00;99.90;;;;;;5048752;28;20054;-69
2023/08/07 05:59:25;;;;;;;9.10;2.83;;;15.10;99.90;;;;;;5032448;28;20051;-69
2023/08/07 06:01:51;;;;;;;5.18;2.70;;;15.10;99.90;;;;;;5032514;28;20072;-68
2023/08/07 06:04:17;;;;;;;8.73;2.55;;;15.10;99.90;;;;;;5043138;28;20117;-68
2023/08/07 06:06:43;;;;;;;10.38;3.75;;;15.00;99.90;;;;;;5053629;28;20121;-69
2023/08/07 06:09:09;;;;;;;8.18;2.67;;;15.00;99.90;;;;;;5047895;28;20071;-69
2023/08/07 06:11:35;;;;;;;9.57;3.25;;;15.00;99.90;;;;;;5053673;28;20071;-69
2023/08/07 06:14:01;;;;;;;11.27;2.97;;;14.90;99.90;;;;;;5066480;22;20091;-65
2023/08/07 06:16:27;;;;;;;11.25;2.95;;;15.10;99.90;;;;;;5053015;28;20069;-65
2023/08/07 06:18:53;;;;;;;10.82;2.83;;;15.00;99.90;;;;;;5052591;28;20049;-65
2023/08/07 06:21:20;;;;;;;10.18;3.17;;;15.00;99.90;;;;;;5042009;28;20399;-65
2023/08/07 06:23:45;;;;;;;11.07;2.97;;;15.00;99.90;;;;;;5030353;28;20491;-65
2023/08/07 06:26:11;;;;;;;11.65;3.15;;;15.10;99.90;;;;;;5032857;28;20036;-65
2023/08/07 06:28:37;;;;;;;10.63;3.58;;;15.10;99.90;;;;;;5033684;28;20037;-65
2023/08/07 06:31:04;;;;;;;11.07;3.45;;;15.20;99.90;;;;;;5032004;28;20052;-64
2023/08/07 06:33:30;;;;;;;9.85;3.50;;;15.20;99.90;;;;;;5031759;28;20163;-64
2023/08/07 06:35:57;;;;;;;6.53;2.90;;;15.20;99.90;;;;;;5033513;28;20044;-65
2023/08/07 06:38:23;;;;;;;7.72;3.00;;;15.30;99.90;;;;;;5032235;28;20158;-64
2023/08/07 06:40:49;;;;;;;17.05;4.13;;;15.40;99.90;;;;;;5028597;28;20161;-64
2023/08/07 06:43:14;;;;;;;9.32;3.38;;;15.60;99.90;;;;;;5031471;28;20034;-64
2023/08/07 06:45:40;;;;;;;16.55;3.70;;;15.60;99.90;;;;;;5027853;28;20025;-64
2023/08/07 06:48:05;;;;;;;12.32;3.65;;;15.80;99.90;;;;;;5030944;28;20187;-64
2023/08/07 06:50:31;;;;;;;15.80;4.22;;;15.80;99.90;;;;;;5029641;28;20037;-64
2023/08/07 06:52:57;;;;;;;10.63;3.63;;;15.80;99.90;;;;;;5026551;28;20174;-64
2023/08/07 06:55:22;;;;;;;13.27;3.90;;;15.80;99.90;;;;;;5032263;28;20045;-64
2023/08/07 06:57:48;;;;;;;9.80;4.35;;;15.70;99.90;;;;;;5024774;28;20120;-63
2023/08/07 07:00:15;;;;;;;10.98;3.33;;;15.60;99.90;;;;;;5013409;28;20036;-64
2023/08/07 07:02:45;;;;;;;8.95;3.22;;;15.50;99.90;;;;;;5025121;28;20041;-64
2023/08/07 07:05:11;;;;;;;9.77;2.92;;;15.50;99.90;;;;;;5031303;28;20417;-66
2023/08/07 07:07:37;;;;;;;7.57;2.72;;;15.50;99.90;;;;;;5029691;28;20037;-65
2023/08/07 07:10:03;;;;;;;8.27;2.83;;;15.50;99.90;;;;;;5033170;28;20492;-64
2023/08/07 07:12:29;;;;;;;10.65;2.70;;;15.40;99.90;;;;;;5031135;28;20048;-65
2023/08/07 07:14:55;;;;;;;11.32;3.03;;;15.50;99.90;;;;;;5028606;28;20049;-64
2023/08/07 07:17:20;;;;;;;10.35;2.38;;;15.50;99.90;;;;;;5031064;28;20037;-65
2023/08/07 07:19:46;;;;;;;8.25;2.55;;;15.50;99.90;;;;;;5026088;28;20075;-65
2023/08/07 07:22:12;;;;;;;8.52;2.47;;;15.50;99.90;;;;;;5031240;28;20107;-65
2023/08/07 07:24:38;;;;;;;11.20;3.78;;;15.60;99.90;;;;;;5028950;28;20119;-65
2023/08/07 07:27:04;;;;;;;13.20;3.45;;;15.70;99.90;;;;;;5032233;28;20033;-65
2023/08/07 07:29:30;;;;;;;11.57;3.10;;;15.80;99.90;;;;;;5031069;28;20052;-64
2023/08/07 07:31:56;;;;;;;12.77;3.28;;;15.90;99.90;;;;;;5030694;28;20399;-64
2023/08/07 07:34:22;;;;;;;11.52;3.10;;;16.10;99.90;;;;;;5027347;28;20117;-64
2023/08/07 07:36:48;;;;;;;11.93;3.20;;;16.30;99.90;;;;;;5021808;28;20041;-65
2023/08/07 07:39:13;;;;;;;11.75;2.60;;;16.50;99.90;;;;;;5029075;28;20053;-64
2023/08/07 07:41:39;;;;;;;10.20;3.00;;;16.60;99.90;;;;;;5022422;28;20133;-64
2023/08/07 07:44:05;;;;;;;9.52;3.08;;;16.60;99.90;;;;;;5023388;28;20515;-64
2023/08/07 07:46:32;;;;;;;8.38;2.85;;;16.60;99.90;;;;;;5026546;28;20041;-64
2023/08/07 07:48:58;;;;;;;11.60;2.40;;;16.60;99.90;;;;;;5025338;28;20042;-64
2023/08/07 07:51:24;;;;;;;11.63;2.80;;;16.60;99.90;;;;;;5024872;28;20083;-64
2023/08/07 07:53:50;;;;;;;5.57;2.00;;;16.40;99.90;;;;;;5021742;28;20084;-64
2023/08/07 07:56:15;;;;;;;5.03;1.70;;;16.30;99.90;;;;;;5023690;28;20133;-64
2023/08/07 07:58:41;;;;;;;3.00;1.50;;;16.20;99.90;;;;;;5024617;28;20107;-63
2023/08/07 08:01:07;;;;;;;6.43;1.65;;;16.10;99.90;;;;;;5026917;28;20404;-64
2023/08/07 08:03:33;;;;;;;6.80;2.17;;;16.20;99.90;;;;;;5021196;28;20041;-64
2023/08/07 08:05:59;;;;;;;5.80;1.77;;;16.30;99.90;;;;;;5020227;28;20036;-64
2023/08/07 08:08:24;;;;;;;5.80;1.85;;;16.40;99.90;;;;;;5022835;28;20048;-64
2023/08/07 08:10:51;;;;;;;6.15;1.77;;;16.40;99.90;;;;;;5022344;28;20126;-64
2023/08/07 08:13:17;;;;;;;6.40;2.13;;;16.20;99.90;;;;;;5020340;28;20042;-64
2023/08/07 08:15:44;;;;;;;5.57;1.90;;;16.10;99.90;;;;;;5023758;28;20036;-63
2023/08/07 08:18:10;;;;;;;4.28;1.63;;;16.00;99.90;;;;;;5019458;28;20084;-63
2023/08/07 08:20:36;;;;;;;5.05;1.30;;;15.90;99.90;;;;;;5023386;28;20562;-64
2023/08/07 08:23:01;;;;;;;3.65;1.35;;;15.90;99.90;;;;;;5021455;28;20032;-63
2023/08/07 08:25:27;;;;;;;3.35;1.35;;;15.80;99.90;;;;;;5023376;28;20052;-65
2023/08/07 08:27:53;;;;;;;2.05;1.02;;;15.70;99.90;;;;;;5023327;28;20029;-64
2023/08/07 08:30:18;;;;;;;4.88;1.60;;;15.70;99.90;;;;;;5024731;28;20044;-64
2023/08/07 08:32:44;;;;;;;2.53;1.27;;;15.90;99.90;;;;;;5024438;28;20042;-64
2023/08/07 08:35:09;;;;;;;6.45;1.70;;;15.90;99.90;;;;;;5024597;28;20072;-64
2023/08/07 08:37:35;;;;;;;6.10;2.03;;;16.00;99.90;;;;;;5022914;28;20041;-65
2023/08/07 08:40:01;;;;;;;6.45;1.63;;;16.20;99.90;;;;;;5023730;28;20171;-65
2023/08/07 08:42:27;;;;;;;6.22;1.95;;;16.40;99.90;;;;;;5023821;28;20124;-64
2023/08/07 08:44:59;;;;;;;8.43;2.10;;;16.60;99.90;;;;;;5024890;28;20037;-64
2023/08/07 08:47:26;;;;;;;6.18;2.15;;;17.00;99.90;;;;;;5021128;28;20029;-64
2023/08/07 08:50:04;;;;;;;7.18;2.13;;;17.00;99.90;;;;;;5026000;28;20041;-64
2023/08/07 08:52:32;;;;;;;4.53;2.10;;;17.10;99.90;;;;;;5025307;28;20085;-65
2023/08/07 08:54:58;;;;;;;5.63;2.20;;;16.90;99.90;;;;;;5024044;28;20131;-65
2023/08/07 08:57:26;;;;;;;7.47;2.00;;;16.60;99.90;;;;;;5023016;28;20460;-65
2023/08/07 08:59:52;;;;;;;7.60;2.38;;;16.30;99.90;;;;;;5017889;28;20041;-65
2023/08/07 09:02:18;;;;;;;7.25;2.30;;;16.00;99.90;;;;;;5024329;28;20052;-65
2023/08/07 09:04:44;;;;;;;9.23;2.60;;;15.80;99.90;;;;;;5024506;28;20041;-64
2023/08/07 09:07:14;;;;;;;8.55;2.35;;;15.80;99.90;;;;;;5023071;28;20037;-64
2023/08/07 09:09:40;;;;;;;7.15;2.97;;;15.80;99.90;;;;;;5020770;28;20049;-64
2023/08/07 09:12:11;;;;;;;6.32;2.28;;;15.90;99.90;;;;;;5025803;28;20041;-64
2023/08/07 09:14:39;;;;;;;9.38;2.97;;;16.20;99.90;;;;;;5020471;28;20087;-65
2023/08/07 09:17:05;;;;;;;9.40;2.90;;;16.40;99.90;;;;;;5027909;28;20645;-64
2023/08/07 09:19:31;;;;;;;8.52;2.70;;;16.50;99.90;;;;;;5027412;28;20033;-64
2023/08/07 09:21:57;;;;;;;9.07;3.03;;;16.70;99.90;;;;;;5024850;28;20033;-64
2023/08/07 09:24:22;;;;;;;9.27;2.85;;;16.80;99.90;;;;;;5024165;28;20748;-64
2023/08/07 09:26:50;;;;;;;9.15;2.97;;;17.10;99.90;;;;;;5024928;28;20037;-64
2023/08/07 09:29:16;;;;;;;10.82;2.58;;;17.30;99.90;;;;;;5026660;28;20121;-64
2023/08/07 09:31:45;;;;;;;7.53;2.22;;;17.50;99.90;;;;;;5026202;28;20116;-64
2023/08/07 09:34:11;;;;;;;8.77;2.40;;;17.70;99.90;;;;;;5028612;28;20041;-64
2023/08/07 09:36:38;;;;;;;8.00;2.50;;;17.70;99.90;;;;;;5024235;28;20060;-64
2023/08/07 09:39:04;;;;;;;6.30;2.50;;;17.70;99.90;;;;;;5029089;28;20038;-64
2023/08/07 09:41:30;;;;;;;8.85;2.42;;;17.80;99.90;;;;;;5022251;28;20568;-64
2023/08/07 09:43:57;;;;;;;7.28;2.40;;;17.80;99.90;;;;;;5024751;28;20117;-64
2023/08/07 09:46:25;;;;;;;7.22;2.28;;;17.80;99.90;;;;;;5028147;28;20044;-64
2023/08/07 09:48:51;;;;;;;5.07;2.13;;;17.90;99.90;;;;;;5025389;28;20037;-64
2023/08/07 09:51:16;;;;;;;8.00;2.10;;;18.00;99.90;;;;;;5028975;28;20464;-64
2023/08/07 09:53:42;;;;;;;8.43;2.47;;;18.00;99.90;;;;;;5025096;28;20034;-64
2023/08/07 09:56:08;;;;;;;7.97;2.63;;;17.80;99.90;;;;;;5024110;28;21300;-64
2023/08/07 09:58:34;;;;;;;6.40;2.20;;;17.70;99.90;;;;;;5026249;28;20042;-64
2023/08/07 10:01:09;;;;;;;8.80;2.55;;;17.70;99.90;;;;;;5026186;28;20079;-64
2023/08/07 10:03:35;;;;;;;5.82;2.28;;;17.70;99.90;;;;;;5026664;28;20451;-64
2023/08/07 10:06:01;;;;;;;6.53;2.28;;;17.80;99.90;;;;;;5027504;28;20088;-64
2023/08/07 10:08:28;;;;;;;4.07;1.77;;;18.00;99.90;;;;;;5026209;28;20060;-64
2023/08/07 10:10:54;;;;;;;5.57;2.35;;;18.20;99.90;;;;;;5026842;28;20116;-63
2023/08/07 10:13:22;;;;;;;8.27;2.25;;;18.40;99.90;;;;;;5025014;28;20519;-63
2023/08/07 10:15:49;;;;;;;9.15;2.22;;;18.60;99.90;;;;;;5030012;28;20065;-63
2023/08/07 10:18:14;;;;;;;5.20;2.00;;;18.70;99.90;;;;;;5031858;28;20496;-63
2023/08/07 10:20:43;;;;;;;8.85;2.22;;;18.70;99.90;;;;;;5029940;28;20163;-63
2023/08/07 10:23:10;;;;;;;5.15;1.98;;;18.60;99.90;;;;;;5033057;28;20100;-63
2023/08/07 10:25:43;;;;;;;8.32;2.50;;;18.40;99.90;;;;;;5029119;28;20400;-63
2023/08/07 10:28:13;;;;;;;8.35;2.28;;;18.10;99.90;;;;;;5026948;28;20038;-63
2023/08/07 10:30:41;;;;;;;11.20;2.40;;;17.90;99.90;;;;;;5027764;28;20503;-63
2023/08/07 10:33:09;;;;;;;7.80;2.22;;;17.80;99.90;;;;;;5032711;28;20272;-63
2023/08/07 10:35:35;;;;;;;7.03;2.03;;;17.90;99.90;;;;;;5027853;28;20041;-63
2023/08/07 10:38:10;;;;;;;7.97;2.50;;;18.10;99.90;;;;;;5031286;28;20068;-63
2023/08/07 10:41:02;;;;;;;8.00;2.08;;;18.30;99.90;;;;;;5030921;28;20037;-64
2023/08/07 10:43:29;;;;;;;6.85;2.33;;;18.60;99.90;;;;;;5029635;28;20037;-64
2023/08/07 10:46:03;;;;;;;5.78;2.03;;;18.70;99.90;;;;;;5029511;28;20033;-64
2023/08/07 10:48:28;;;;;;;7.30;2.20;;;18.80;99.90;;;;;;5031179;28;20046;-64
2023/08/07 10:50:54;;;;;;;7.03;2.30;;;18.60;99.90;;;;;;5043861;28;20099;-64
2023/08/07 10:53:27;;;;;;;6.65;2.30;;;18.40;99.90;;;;;;5031185;28;20394;-64
2023/08/07 10:55:57;;;;;;;4.97;1.90;;;18.30;99.90;;;;;;5032400;28;20053;-64
2023/08/07 10:58:30;;;;;;;6.80;2.45;;;18.10;99.90;;;;;;5023197;28;20495;-64
2023/08/07 11:01:26;;;;;;;8.73;2.58;;;18.10;99.90;;;;;;5029061;28;20095;-64
2023/08/07 11:03:54;;;;;;;7.10;2.17;;;18.10;99.90;;;;;;5031092;28;20048;-64
2023/08/07 11:06:31;;;;;;;6.32;2.20;;;18.10;99.90;;;;;;5026942;28;20038;-64
2023/08/07 11:09:00;;;;;;;5.72;2.00;;;18.20;99.90;;;;;;5030003;28;20084;-64
2023/08/07 11:11:29;;;;;;;6.75;2.20;;;18.40;99.90;;;;;;5031733;28;20033;-64
2023/08/07 11:13:55;;;;;;;5.38;2.30;;;18.30;99.90;;;;;;5030498;28;20041;-64
2023/08/07 11:16:21;;;;;;;7.03;2.00;;;18.30;99.90;;;;;;5030453;28;20116;-65
2023/08/07 11:18:48;;;;;;;8.50;2.22;;;18.20;99.90;;;;;;5031159;28;20107;-65
2023/08/07 11:21:14;;;;;;;8.05;2.20;;;18.00;99.90;;;;;;5024193;28;20033;-64
2023/08/07 11:23:41;;;;;;;7.03;1.77;;;17.90;99.90;;;;;;5024048;28;20518;-62
2023/08/07 11:26:07;;;;;;;7.65;2.17;;;17.70;99.90;;;;;;5007022;28;20069;-62
2023/08/07 11:28:33;;;;;;;7.97;2.38;;;17.60;99.90;;;;;;5027276;28;20052;-63
2023/08/07 11:31:00;;;;;;;6.50;2.10;;;17.60;99.90;;;;;;5025433;28;20033;-63
2023/08/07 11:33:26;;;;;;;8.38;2.33;;;17.60;99.90;;;;;;5026678;28;20045;-63
2023/08/07 11:35:52;;;;;;;9.73;2.63;;;17.60;99.90;;;;;;5025903;28;20073;-63
2023/08/07 11:38:33;;;;;;;6.80;2.15;;;17.80;99.90;;;;;;5027227;28;20045;-63
2023/08/07 11:41:03;;;;;;;11.27;2.75;;;18.10;99.90;;;;;;5026736;28;20041;-63
2023/08/07 11:43:33;;;;;;;6.97;2.25;;;18.20;99.90;;;;;;5024795;28;20037;-63
2023/08/07 11:46:01;;;;;;;6.10;1.67;;;18.30;99.90;;;;;;5022028;28;20033;-63
2023/08/07 11:48:28;;;;;;;7.57;1.88;;;18.10;99.90;;;;;;5022229;28;20060;-63
2023/08/07 11:50:55;;;;;;;4.93;1.95;;;18.00;99.90;;;;;;5024570;28;20037;-63
2023/08/07 11:53:22;;;;;;;7.20;2.08;;;18.00;99.90;;;;;;5026131;28;20048;-64
2023/08/07 11:55:53;;;;;;;6.90;1.85;;;18.00;99.90;;;;;;5027068;28;20116;-64
2023/08/07 11:58:19;;;;;;;7.50;2.05;;;18.20;99.90;;;;;;5025345;28;20041;-64
2023/08/07 12:00:46;;;;;;;5.88;1.80;;;18.30;99.90;;;;;;5024717;28;20048;-64
2023/08/07 12:03:26;;;;;;;5.80;2.10;;;18.30;99.90;;;;;;5023968;28;20683;-64
2023/08/07 12:05:53;;;;;;;8.48;2.30;;;18.30;99.90;;;;;;5021778;28;20037;-64
2023/08/07 12:08:19;;;;;;;6.68;1.80;;;18.20;99.90;;;;;;5026122;28;20043;-64
2023/08/07 12:10:48;;;;;;;4.28;1.42;;;18.20;99.90;;;;;;5024634;28;20499;-64
2023/08/07 12:13:13;;;;;;;4.28;1.95;;;18.20;99.90;;;;;;5027048;28;20440;-64
2023/08/07 12:15:39;;;;;;;5.70;1.67;;;18.30;99.90;;;;;;5034582;23;20173;-67
2023/08/07 12:18:07;;;;;;;5.57;1.67;;;18.30;99.90;;;;;;5010008;28;20026;-66
2023/08/07 12:20:33;;;;;;;5.70;1.92;;;18.30;99.90;;;;;;5010609;28;20061;-67
2023/08/07 12:22:58;;;;;;;5.30;1.98;;;18.30;99.90;;;;;;5011333;28;20496;-68
2023/08/07 12:25:24;;;;;;;6.13;2.00;;;18.40;99.90;;;;;;5007342;28;20042;-67
2023/08/07 12:27:50;;;;;;;5.13;1.63;;;18.40;99.90;;;;;;5026981;28;20482;-67
2023/08/07 12:30:15;;;;;;;7.40;1.95;;;18.40;99.90;;;;;;5010329;28;20384;-67
2023/08/07 12:32:41;;;;;;;6.13;1.90;;;18.60;99.90;;;;;;5011642;28;20034;-67
2023/08/07 12:35:10;;;;;;;7.10;1.70;;;18.70;99.90;;;;;;5010610;28;20097;-67
2023/08/07 12:37:36;;;;;;;4.88;1.80;;;18.70;99.90;;;;;;5011680;28;20045;-67
2023/08/07 12:40:04;;;;;;;7.97;1.92;;;18.60;99.90;;;;;;5011200;28;20526;-67
2023/08/07 12:42:30;;;;;;;5.80;1.88;;;18.60;99.90;;;;;;5011929;28;20339;-67
2023/08/07 12:44:56;;;;;;;4.30;1.80;;;18.50;99.90;;;;;;5010938;28;20045;-67